createdAt,value
2022-12-11T00:01:19.642Z,2.42
2022-12-11T00:03:47.730Z,2.29
2022-12-11T00:06:16.212Z,2.27
2022-12-11T00:08:43.606Z,2.64
2022-12-11T00:11:12.981Z,2.08
2022-12-11T00:13:40.288Z,2.06
2022-12-11T00:16:07.829Z,2.10
2022-12-11T00:18:35.484Z,2.50
2022-12-11T00:21:03.774Z,1.98
2022-12-11T00:23:31.130Z,1.82
2022-12-11T00:25:58.724Z,1.97
2022-12-11T00:28:26.047Z,1.84
2022-12-11T00:30:53.484Z,1.80
2022-12-11T00:33:21.062Z,1.86
2022-12-11T00:35:48.668Z,2.13
2022-12-11T00:38:17.000Z,2.45
2022-12-11T00:40:44.658Z,2.17
2022-12-11T00:43:12.097Z,2.11
2022-12-11T00:45:41.217Z,2.16
2022-12-11T00:48:09.285Z,2.02
2022-12-11T00:50:36.734Z,2.02
2022-12-11T00:53:04.614Z,2.08
2022-12-11T00:55:32.352Z,2.05
2022-12-11T00:57:59.711Z,2.15
2022-12-11T01:00:27.231Z,2.06
2022-12-11T01:02:54.911Z,2.28
2022-12-11T01:05:22.319Z,1.82
2022-12-11T01:07:49.689Z,1.55
2022-12-11T01:10:26.435Z,1.53
2022-12-11T01:13:14.141Z,1.28
2022-12-11T01:15:43.962Z,1.19
2022-12-11T01:18:11.974Z,1.59
2022-12-11T01:20:40.117Z,1.54
2022-12-11T01:23:07.809Z,1.77
2022-12-11T01:25:35.942Z,1.58
2022-12-11T01:28:03.435Z,2.13
2022-12-11T01:30:31.138Z,1.89
2022-12-11T01:32:58.524Z,1.73
2022-12-11T01:35:25.868Z,1.45
2022-12-11T01:37:53.532Z,1.56
2022-12-11T01:40:21.292Z,1.16
2022-12-11T01:42:48.621Z,1.14
2022-12-11T01:45:24.645Z,1.83
2022-12-11T01:47:57.029Z,1.78
2022-12-11T01:50:24.750Z,1.42
2022-12-11T01:52:52.062Z,1.05
2022-12-11T01:55:19.430Z,1.36
2022-12-11T01:57:47.699Z,1.31
2022-12-11T02:00:15.488Z,1.38
2022-12-11T02:02:44.855Z,1.19
2022-12-11T02:05:12.899Z,1.26
2022-12-11T02:07:44.530Z,0.94
2022-12-11T02:10:12.708Z,1.12
2022-12-11T02:12:57.786Z,1.29
2022-12-11T02:15:31.558Z,1.15
2022-12-11T02:18:28.301Z,1.25
2022-12-11T02:21:03.990Z,0.71
2022-12-11T02:23:36.760Z,0.89
2022-12-11T02:26:25.439Z,0.94
2022-12-11T02:29:03.020Z,0.81
2022-12-11T02:31:47.895Z,1.01
2022-12-11T02:34:22.369Z,1.63
2022-12-11T02:36:52.687Z,1.09
2022-12-11T02:39:20.015Z,1.14
2022-12-11T02:41:50.067Z,1.10
2022-12-11T02:44:19.911Z,0.85
2022-12-11T02:46:47.337Z,0.69
2022-12-11T02:49:14.658Z,0.84
2022-12-11T02:51:42.739Z,0.95
2022-12-11T02:54:20.885Z,0.76
2022-12-11T02:56:52.703Z,0.93
2022-12-11T02:59:23.853Z,0.49
2022-12-11T03:01:51.481Z,0.53
2022-12-11T03:04:18.844Z,0.53
2022-12-11T03:06:48.361Z,0.58
2022-12-11T03:09:15.958Z,1.33
2022-12-11T03:11:43.302Z,1.67
2022-12-11T03:14:11.403Z,0.89
2022-12-11T03:16:43.102Z,1.21
2022-12-11T03:19:24.251Z,1.15
2022-12-11T03:21:54.426Z,1.32
2022-12-11T03:24:47.892Z,0.91
2022-12-11T03:27:28.271Z,0.66
2022-12-11T03:30:21.003Z,0.93
2022-12-11T03:33:12.031Z,0.76
2022-12-11T03:35:41.281Z,0.55
2022-12-11T03:38:16.404Z,0.68
2022-12-11T03:40:44.523Z,0.73
2022-12-11T03:43:12.238Z,1.13
2022-12-11T03:45:39.669Z,0.86
2022-12-11T03:48:07.338Z,0.83
2022-12-11T03:50:34.927Z,0.71
2022-12-11T03:53:02.350Z,0.79
2022-12-11T03:55:29.890Z,1.06
2022-12-11T03:57:57.577Z,1.25
2022-12-11T04:00:24.999Z,0.69
2022-12-11T04:03:18.920Z,0.69
2022-12-11T04:05:50.900Z,0.88
2022-12-11T04:08:20.543Z,1.10
2022-12-11T04:10:48.290Z,0.62
2022-12-11T04:13:15.677Z,0.83
2022-12-11T04:15:43.309Z,0.79
2022-12-11T04:18:29.703Z,0.72
2022-12-11T04:21:15.651Z,0.56
2022-12-11T04:24:01.565Z,0.33
2022-12-11T04:26:29.199Z,0.52
2022-12-11T04:28:56.540Z,0.51
2022-12-11T04:31:23.964Z,0.73
2022-12-11T04:33:51.602Z,0.38
2022-12-11T04:36:18.917Z,0.37
2022-12-11T04:38:46.265Z,0.49
2022-12-11T04:41:14.490Z,0.44
2022-12-11T04:43:45.025Z,0.93
2022-12-11T04:46:17.711Z,0.67
2022-12-11T04:48:45.547Z,0.29
2022-12-11T04:51:12.883Z,0.40
2022-12-11T04:53:40.194Z,0.38
2022-12-11T04:56:08.867Z,0.39
2022-12-11T04:58:36.649Z,0.41
2022-12-11T05:01:10.927Z,0.65
2022-12-11T05:03:38.671Z,0.59
2022-12-11T05:06:06.221Z,0.39
2022-12-11T05:08:34.354Z,0.38
2022-12-11T05:11:03.247Z,0.40
2022-12-11T05:13:30.700Z,0.65
2022-12-11T05:15:58.360Z,0.79
2022-12-11T05:18:26.214Z,0.75
2022-12-11T05:21:00.590Z,0.52
2022-12-11T05:23:28.316Z,0.45
2022-12-11T05:25:57.165Z,0.29
2022-12-11T05:28:27.548Z,0.24
2022-12-11T05:30:56.843Z,0.40
2022-12-11T05:33:24.513Z,0.18
2022-12-11T05:35:51.899Z,0.57
2022-12-11T05:38:19.544Z,0.35
2022-12-11T05:40:58.844Z,0.29
2022-12-11T05:43:27.269Z,0.26
2022-12-11T05:45:54.601Z,0.40
2022-12-11T05:48:22.057Z,0.55
2022-12-11T05:50:59.860Z,0.29
2022-12-11T05:53:27.402Z,0.14
2022-12-11T05:55:54.988Z,0.19
2022-12-11T05:58:22.322Z,0.28
2022-12-11T06:00:49.861Z,0.51
2022-12-11T06:03:17.517Z,0.31
2022-12-11T06:05:44.866Z,0.51
2022-12-11T06:08:12.321Z,0.49
2022-12-11T06:10:45.790Z,0.56
2022-12-11T06:13:13.783Z,0.21
2022-12-11T06:15:41.465Z,0.29
2022-12-11T06:18:08.812Z,0.62
2022-12-11T06:20:36.412Z,0.48
2022-12-11T06:23:04.012Z,0.50
2022-12-11T06:25:31.343Z,0.30
2022-12-11T06:27:58.814Z,0.24
2022-12-11T06:30:38.732Z,0.36
2022-12-11T06:33:07.171Z,0.21
2022-12-11T06:35:41.449Z,0.55
2022-12-11T06:38:10.615Z,0.31
2022-12-11T06:40:38.379Z,0.17
2022-12-11T06:43:05.739Z,0.24
2022-12-11T06:45:33.212Z,0.19
2022-12-11T06:48:00.942Z,0.19
2022-12-11T06:50:28.286Z,0.24
2022-12-11T06:52:58.694Z,0.18
2022-12-11T06:55:26.326Z,0.12
2022-12-11T06:57:53.974Z,0.33
2022-12-11T07:00:21.369Z,0.37
2022-12-11T07:02:50.760Z,0.23
2022-12-11T07:05:18.125Z,0.15
2022-12-11T07:07:45.576Z,0.37
2022-12-11T07:10:13.308Z,0.27
2022-12-11T07:12:40.624Z,0.40
2022-12-11T07:15:08.543Z,0.64
2022-12-11T07:17:36.586Z,0.82
2022-12-11T07:20:04.478Z,0.43
2022-12-11T07:22:31.973Z,0.52
2022-12-11T07:24:59.930Z,0.21
2022-12-11T07:27:27.261Z,0.34
2022-12-11T07:29:55.560Z,0.48
2022-12-11T07:32:23.335Z,0.53
2022-12-11T07:34:52.124Z,0.58
2022-12-11T07:37:19.621Z,0.46
2022-12-11T07:39:48.990Z,0.83
2022-12-11T07:42:16.388Z,0.95
2022-12-11T07:44:43.764Z,0.55
2022-12-11T07:47:11.533Z,0.74
2022-12-11T07:49:38.849Z,0.93
2022-12-11T07:52:06.188Z,0.68
2022-12-11T07:54:33.958Z,0.75
2022-12-11T07:57:01.416Z,0.75
2022-12-11T07:59:28.797Z,1.02
2022-12-11T08:01:56.549Z,0.92
2022-12-11T08:04:24.171Z,1.10
2022-12-11T08:06:51.882Z,1.08
2022-12-11T08:09:22.655Z,0.93
2022-12-11T08:11:50.822Z,0.99
2022-12-11T08:14:18.662Z,1.03
2022-12-11T08:16:46.140Z,1.21
2022-12-11T08:19:13.818Z,1.21
2022-12-11T08:21:41.150Z,1.11
2022-12-11T08:24:08.957Z,1.01
2022-12-11T08:26:36.536Z,1.02
2022-12-11T08:29:03.992Z,1.29
2022-12-11T08:31:33.336Z,1.31
2022-12-11T08:34:01.015Z,0.99
2022-12-11T08:36:28.611Z,1.30
2022-12-11T08:38:56.326Z,1.30
2022-12-11T08:41:28.327Z,1.27
2022-12-11T08:43:56.301Z,1.20
2022-12-11T08:46:25.524Z,1.30
2022-12-11T08:48:53.214Z,1.16
2022-12-11T08:51:22.859Z,1.38
2022-12-11T08:53:51.133Z,1.63
2022-12-11T08:56:20.087Z,1.19
2022-12-11T08:58:47.669Z,1.04
2022-12-11T09:01:22.618Z,1.06
2022-12-11T09:03:50.441Z,1.12
2022-12-11T09:06:19.299Z,1.57
2022-12-11T09:08:51.892Z,0.90
2022-12-11T09:11:23.976Z,1.01
2022-12-11T09:13:51.324Z,1.08
2022-12-11T09:16:19.835Z,1.24
2022-12-11T09:18:48.014Z,1.15
2022-12-11T09:21:17.062Z,1.29
2022-12-11T09:23:44.422Z,1.45
2022-12-11T09:26:13.703Z,1.42
2022-12-11T09:28:45.771Z,1.12
2022-12-11T09:31:27.248Z,1.05
2022-12-11T09:33:56.449Z,1.19
2022-12-11T09:36:24.185Z,1.02
2022-12-11T09:38:51.687Z,1.33
2022-12-11T09:41:22.079Z,1.22
2022-12-11T09:44:03.639Z,1.11
2022-12-11T09:46:34.171Z,0.94
2022-12-11T09:49:02.839Z,1.16
2022-12-11T09:51:44.049Z,1.37
2022-12-11T09:54:11.860Z,1.11
2022-12-11T09:56:56.532Z,1.37
2022-12-11T09:59:52.797Z,1.25
2022-12-11T10:02:33.983Z,1.19
2022-12-11T10:05:08.820Z,1.56
2022-12-11T10:07:38.739Z,1.09
2022-12-11T10:10:09.400Z,1.47
2022-12-11T10:12:48.706Z,1.70
2022-12-11T10:15:37.440Z,1.59
2022-12-11T10:18:07.030Z,1.22
2022-12-11T10:20:39.105Z,1.12
2022-12-11T10:23:07.598Z,1.24
2022-12-11T10:25:44.956Z,1.29
2022-12-11T10:28:16.689Z,1.26
2022-12-11T10:31:08.967Z,1.34
2022-12-11T10:33:42.080Z,1.23
2022-12-11T10:36:09.724Z,1.40
2022-12-11T10:38:44.657Z,1.16
2022-12-11T10:41:21.157Z,1.29
2022-12-11T10:43:49.842Z,1.27
2022-12-11T10:46:21.368Z,1.70
2022-12-11T10:48:56.485Z,1.20
2022-12-11T10:51:42.087Z,1.34
2022-12-11T10:54:29.131Z,1.40
2022-12-11T10:56:56.818Z,1.18
2022-12-11T10:59:34.132Z,1.10
2022-12-11T11:02:02.103Z,1.47
2022-12-11T11:04:35.902Z,1.21
2022-12-11T11:07:13.483Z,1.20
2022-12-11T11:09:40.972Z,1.59
2022-12-11T11:12:26.133Z,1.54
2022-12-11T11:15:01.122Z,1.26
2022-12-11T11:17:34.454Z,1.33
2022-12-11T11:20:07.491Z,1.18
2022-12-11T11:22:39.080Z,1.27
2022-12-11T11:25:06.896Z,1.61
2022-12-11T11:27:42.788Z,1.48
2022-12-11T11:30:36.809Z,1.18
2022-12-11T11:33:18.676Z,1.20
2022-12-11T11:35:59.356Z,1.58
2022-12-11T11:38:31.458Z,1.30
2022-12-11T11:41:21.512Z,1.12
2022-12-11T11:43:49.935Z,1.29
2022-12-11T11:46:45.121Z,1.23
2022-12-11T11:49:32.453Z,1.15
2022-12-11T11:52:11.818Z,1.20
2022-12-11T11:55:21.693Z,1.32
2022-12-11T11:58:01.046Z,1.38
2022-12-11T12:00:33.707Z,1.83
2022-12-11T12:03:15.456Z,1.43
2022-12-11T12:05:57.935Z,1.79
2022-12-11T12:08:47.570Z,1.92
2022-12-11T12:11:46.635Z,1.42
2022-12-11T12:14:50.463Z,1.55
2022-12-11T12:17:17.527Z,1.71
2022-12-11T12:20:06.285Z,1.70
2022-12-11T12:22:58.578Z,1.70
2022-12-11T12:25:39.664Z,1.70
2022-12-11T12:28:29.450Z,1.42
2022-12-11T12:31:22.014Z,1.51
2022-12-11T12:34:14.189Z,1.79
2022-12-11T12:37:12.333Z,1.91
2022-12-11T12:39:48.356Z,1.35
2022-12-11T12:42:48.259Z,1.53
2022-12-11T12:45:21.340Z,1.59
2022-12-11T12:47:53.157Z,1.43
2022-12-11T12:50:23.218Z,1.50
2022-12-11T12:52:51.349Z,1.66
2022-12-11T12:55:26.304Z,1.64
2022-12-11T12:58:00.275Z,1.56
2022-12-11T13:00:41.348Z,1.71
2022-12-11T13:03:29.899Z,1.64
2022-12-11T13:06:02.415Z,1.85
2022-12-11T13:08:49.017Z,1.58
2022-12-11T13:11:17.720Z,1.60
2022-12-11T13:14:15.343Z,1.91
2022-12-11T13:16:43.570Z,1.60
2022-12-11T13:19:42.295Z,1.77
2022-12-11T13:22:13.050Z,2.16
2022-12-11T13:24:56.835Z,1.80
2022-12-11T13:27:30.072Z,1.60
2022-12-11T13:30:05.986Z,1.65
2022-12-11T13:32:33.523Z,1.73
2022-12-11T13:35:05.500Z,1.56
2022-12-11T13:37:38.845Z,1.64
2022-12-11T13:40:09.324Z,1.69
2022-12-11T13:42:40.911Z,1.46
2022-12-11T13:45:19.970Z,1.50
2022-12-11T13:47:47.832Z,1.86
2022-12-11T13:50:22.563Z,1.90
2022-12-11T13:52:57.664Z,1.58
2022-12-11T13:55:27.175Z,2.10
2022-12-11T13:57:54.558Z,2.13
2022-12-11T14:00:23.880Z,1.89
2022-12-11T14:02:52.340Z,1.42
2022-12-11T14:05:19.744Z,1.41
2022-12-11T14:07:51.920Z,1.44
2022-12-11T14:10:20.459Z,1.55
2022-12-11T14:12:55.837Z,1.79
2022-12-11T14:15:23.666Z,1.50
2022-12-11T14:17:52.057Z,1.58
2022-12-11T14:20:22.740Z,1.42
2022-12-11T14:22:50.492Z,1.75
2022-12-11T14:25:25.225Z,1.56
2022-12-11T14:27:54.353Z,1.30
2022-12-11T14:30:31.645Z,1.15
2022-12-11T14:33:03.421Z,1.14
2022-12-11T14:35:38.931Z,1.40
2022-12-11T14:38:18.082Z,1.52
2022-12-11T14:40:47.102Z,1.21
2022-12-11T14:43:19.854Z,1.31
2022-12-11T14:45:48.569Z,1.57
2022-12-11T14:48:22.616Z,0.99
2022-12-11T14:50:51.999Z,1.04
2022-12-11T14:53:25.255Z,1.16
2022-12-11T14:55:52.776Z,1.59
2022-12-11T14:58:24.868Z,1.59
2022-12-11T15:00:57.912Z,1.25
2022-12-11T15:03:29.789Z,0.89
2022-12-11T15:05:57.564Z,0.86
2022-12-11T15:08:30.368Z,1.04
2022-12-11T15:10:58.037Z,1.19
2022-12-11T15:13:25.419Z,1.02
2022-12-11T15:15:53.041Z,1.23
2022-12-11T15:18:29.837Z,1.37
2022-12-11T15:20:59.440Z,1.53
2022-12-11T15:23:27.694Z,0.97
2022-12-11T15:25:56.458Z,0.94
2022-12-11T15:28:29.650Z,1.04
2022-12-11T15:30:59.435Z,0.95
2022-12-11T15:33:32.532Z,0.80
2022-12-11T15:36:02.735Z,1.16
2022-12-11T15:38:37.681Z,1.38
2022-12-11T15:41:05.664Z,0.65
2022-12-11T15:43:35.981Z,0.86
2022-12-11T15:46:03.858Z,0.76
2022-12-11T15:48:31.512Z,1.01
2022-12-11T15:50:59.013Z,0.77
2022-12-11T15:53:26.330Z,0.89
2022-12-11T15:55:54.177Z,1.15
2022-12-11T15:58:23.195Z,1.11
2022-12-11T16:00:50.664Z,1.12
2022-12-11T16:03:18.981Z,0.98
2022-12-11T16:05:46.765Z,1.23
2022-12-11T16:08:15.255Z,0.77
2022-12-11T16:10:43.423Z,0.81
2022-12-11T16:13:11.427Z,0.63
2022-12-11T16:15:39.557Z,0.88
2022-12-11T16:18:12.173Z,0.75
2022-12-11T16:20:39.990Z,0.71
2022-12-11T16:23:07.878Z,0.85
2022-12-11T16:25:37.439Z,0.77
2022-12-11T16:28:04.937Z,0.49
2022-12-11T16:30:33.542Z,1.35
2022-12-11T16:33:00.912Z,1.03
2022-12-11T16:35:28.802Z,0.74
2022-12-11T16:37:56.435Z,1.09
2022-12-11T16:40:24.088Z,0.76
2022-12-11T16:42:51.709Z,0.76
2022-12-11T16:45:23.966Z,0.54
2022-12-11T16:47:51.405Z,0.66
2022-12-11T16:50:19.290Z,0.94
2022-12-11T16:52:47.196Z,0.92
2022-12-11T16:55:15.605Z,0.56
2022-12-11T16:57:43.263Z,0.88
2022-12-11T17:00:12.555Z,0.73
2022-12-11T17:02:40.434Z,0.53
2022-12-11T17:05:08.163Z,0.82
2022-12-11T17:07:35.507Z,0.70
2022-12-11T17:10:03.259Z,1.01
2022-12-11T17:12:31.240Z,0.71
2022-12-11T17:14:58.632Z,0.96
2022-12-11T17:17:26.055Z,0.59
2022-12-11T17:19:54.075Z,0.87
2022-12-11T17:22:21.893Z,0.39
2022-12-11T17:24:49.640Z,0.15
2022-12-11T17:27:17.461Z,0.32
2022-12-11T17:29:44.909Z,0.19
2022-12-11T17:32:12.272Z,0.72
2022-12-11T17:34:39.907Z,0.63
2022-12-11T17:37:07.472Z,0.61
2022-12-11T17:39:34.781Z,0.34
2022-12-11T17:42:02.397Z,0.48
2022-12-11T17:44:30.634Z,0.18
2022-12-11T17:46:58.483Z,0.17
2022-12-11T17:49:26.209Z,0.89
2022-12-11T17:51:55.249Z,0.65
2022-12-11T17:54:23.639Z,0.33
2022-12-11T17:56:51.381Z,0.37
2022-12-11T17:59:18.717Z,0.45
2022-12-11T18:01:46.099Z,0.50
2022-12-11T18:04:13.830Z,0.56
2022-12-11T18:06:41.238Z,0.41
2022-12-11T18:09:08.819Z,0.15
2022-12-11T18:11:36.568Z,0.40
2022-12-11T18:14:03.918Z,0.15
2022-12-11T18:16:36.817Z,0.90
2022-12-11T18:19:05.480Z,0.41
2022-12-11T18:21:33.867Z,0.36
2022-12-11T18:24:01.325Z,0.31
2022-12-11T18:26:29.152Z,0.31
2022-12-11T18:28:56.521Z,0.04
2022-12-11T18:31:23.990Z,-0.04
2022-12-11T18:33:52.158Z,-0.07
2022-12-11T18:36:19.668Z,-0.05
2022-12-11T18:38:47.951Z,0.35
2022-12-11T18:41:16.144Z,1.01
2022-12-11T18:43:43.501Z,0.66
2022-12-11T18:46:13.981Z,0.56
2022-12-11T18:48:42.505Z,0.78
2022-12-11T18:51:12.254Z,0.21
2022-12-11T18:53:39.683Z,0.39
2022-12-11T18:56:08.896Z,0.32
2022-12-11T18:58:36.283Z,0.33
2022-12-11T19:01:11.477Z,0.01
2022-12-11T19:03:39.185Z,-0.05
2022-12-11T19:06:08.482Z,-0.08
2022-12-11T19:08:35.970Z,-0.15
2022-12-11T19:11:03.636Z,0.29
2022-12-11T19:13:31.142Z,0.74
2022-12-11T19:15:58.949Z,0.19
2022-12-11T19:18:26.901Z,0.02
2022-12-11T19:21:03.309Z,0.36
2022-12-11T19:23:34.359Z,0.08
2022-12-11T19:26:01.734Z,-0.13
2022-12-11T19:28:29.045Z,0.21
2022-12-11T19:30:56.738Z,0.09
2022-12-11T19:33:24.132Z,0.11
2022-12-11T19:36:10.340Z,0.29
2022-12-11T19:38:38.185Z,0.04
2022-12-11T19:41:13.360Z,0.08
2022-12-11T19:43:40.999Z,0.00
2022-12-11T19:46:08.437Z,0.16
2022-12-11T19:48:37.537Z,0.28
2022-12-11T19:51:09.541Z,0.20
2022-12-11T19:53:37.240Z,-0.28
2022-12-11T19:56:05.081Z,0.30
2022-12-11T19:58:32.482Z,0.11
2022-12-11T20:01:00.275Z,-0.33
2022-12-11T20:03:28.204Z,-0.17
2022-12-11T20:06:08.051Z,-0.10
2022-12-11T20:08:44.862Z,-0.11
2022-12-11T20:11:17.833Z,-0.37
2022-12-11T20:13:47.279Z,-0.24
2022-12-11T20:16:15.502Z,-0.13
2022-12-11T20:18:42.956Z,-0.27
2022-12-11T20:21:13.122Z,-0.20
2022-12-11T20:23:41.746Z,-0.06
2022-12-11T20:26:16.804Z,-0.27
2022-12-11T20:28:46.569Z,-0.38
2022-12-11T20:31:19.950Z,-0.21
2022-12-11T20:33:49.236Z,-0.45
2022-12-11T20:36:17.459Z,-0.01
2022-12-11T20:38:45.076Z,-0.49
2022-12-11T20:41:14.201Z,-0.59
2022-12-11T20:43:41.523Z,-0.39
2022-12-11T20:46:09.923Z,-0.33
2022-12-11T20:48:38.670Z,-0.97
2022-12-11T20:51:06.731Z,-0.58
2022-12-11T20:53:34.929Z,-0.72
2022-12-11T20:56:06.304Z,-0.67
2022-12-11T20:58:33.741Z,-0.96
2022-12-11T21:01:01.066Z,-0.76
2022-12-11T21:03:29.702Z,-0.63
2022-12-11T21:05:57.038Z,-0.50
2022-12-11T21:08:24.389Z,-0.14
2022-12-11T21:10:52.029Z,-0.63
2022-12-11T21:13:19.413Z,-0.55
2022-12-11T21:15:46.861Z,-0.77
2022-12-11T21:18:14.447Z,-0.72
2022-12-11T21:20:41.749Z,-0.98
2022-12-11T21:23:09.193Z,-0.78
2022-12-11T21:25:38.337Z,-0.45
2022-12-11T21:28:05.718Z,-0.46
2022-12-11T21:30:33.077Z,-0.78
2022-12-11T21:33:01.480Z,-0.62
2022-12-11T21:35:28.864Z,-0.72
2022-12-11T21:37:56.183Z,-1.03
2022-12-11T21:40:23.782Z,-0.77
2022-12-11T21:42:51.872Z,-1.26
2022-12-11T21:45:59.178Z,-0.94
2022-12-11T21:48:06.798Z,-1.12
2022-12-11T21:50:34.144Z,-1.01
2022-12-11T21:53:02.217Z,-1.14
2022-12-11T21:55:29.834Z,-0.64
2022-12-11T21:57:57.154Z,-1.20
2022-12-11T22:00:24.772Z,-0.88
2022-12-11T22:02:52.446Z,-0.86
2022-12-11T22:05:19.886Z,-0.72
2022-12-11T22:07:47.264Z,-1.28
2022-12-11T22:10:14.903Z,-1.20
2022-12-11T22:12:42.250Z,-1.23
2022-12-11T22:15:09.905Z,-1.09
2022-12-11T22:17:37.821Z,-0.97
2022-12-11T22:20:06.369Z,-1.01
2022-12-11T22:22:33.813Z,-1.00
2022-12-11T22:25:03.520Z,-1.10
2022-12-11T22:27:30.860Z,-1.20
2022-12-11T22:29:58.202Z,-1.34
2022-12-11T22:32:27.470Z,-1.50
2022-12-11T22:34:56.284Z,-1.46
2022-12-11T22:37:24.098Z,-1.32
2022-12-11T22:39:51.703Z,-0.82
2022-12-11T22:42:19.013Z,-1.46
2022-12-11T22:44:46.759Z,-1.35
2022-12-11T22:47:16.214Z,-1.63
2022-12-11T22:49:43.608Z,-1.50
2022-12-11T22:52:10.956Z,-1.61
2022-12-11T22:54:42.054Z,-1.40
2022-12-11T22:57:09.416Z,-1.90
2022-12-11T22:59:36.788Z,-1.99
2022-12-11T23:02:04.441Z,-1.97
2022-12-11T23:04:31.965Z,-1.93
2022-12-11T23:06:59.345Z,-2.18
2022-12-11T23:09:26.953Z,-2.43
2022-12-11T23:11:55.796Z,-2.41
2022-12-11T23:14:23.175Z,-1.86
2022-12-11T23:16:50.808Z,-1.84
2022-12-11T23:19:23.735Z,-2.01
2022-12-11T23:21:53.143Z,-1.90
2022-12-11T23:24:20.515Z,-2.01
2022-12-11T23:26:48.126Z,-2.22
2022-12-11T23:29:15.775Z,-2.11
2022-12-11T23:31:43.134Z,-2.03
2022-12-11T23:34:10.518Z,-2.01
2022-12-11T23:36:38.150Z,-1.83
2022-12-11T23:39:05.492Z,-1.80
2022-12-11T23:41:32.846Z,-1.94
2022-12-11T23:44:00.454Z,-2.00
2022-12-11T23:46:27.893Z,-1.61
2022-12-11T23:48:55.465Z,-1.67
2022-12-11T23:51:23.839Z,-2.08
2022-12-11T23:53:51.345Z,-2.03
2022-12-11T23:56:21.122Z,-2.03
2022-12-11T23:58:48.857Z,-1.83
